Umar1 — 9HA2498 — position and weather

sailwx.info

Track history (hours):
 
Tides and Currents Weather Stations Pressure Air Temp Water Temp Dewpoint Dewpoint Depression Visibility Wind Speed Wind Dir Waves Ship Positions

Umar1

Last reported at 2014-Dec-21 02:33 UTC. Time now 2014-Dec-21 02:36 UTC.
Position N 36°34' W 009°17'.

Length 100 m; draft 6.2 m.

Type: Tanker. MMSI: 248751000.

Date/timePositionNaut miles runAvg speedWind from/ knotsBaromVisibWave heightAir tempDewpointWater temp
2014-Dec-21 02:33N 36°34' W 009°17'9 9.0
2014-Dec-21 01:30N 36°41' W 009°26'8 8.9
2014-Dec-21 00:33N 36°47' W 009°33'9 9.4
2014-Dec-20 23:33N 36°56' W 009°36'8 8.5
2014-Dec-20 22:33N 37°01' W 009°44'10 9.1
2014-Dec-20 21:27N 37°11' W 009°49'9 9.5
2014-Dec-20 20:32N 37°19' W 009°53'10 9.8
2014-Dec-20 19:32N 37°28' W 009°56'1010.1
2014-Dec-20 18:31N 37°38' W 010°00'10 9.9
2014-Dec-20 17:33N 37°47' W 010°04'10 9.6
2014-Dec-20 16:33N 37°56' W 010°08'10 9.6
2014-Dec-20 15:29N 38°06' W 010°12'9 9.5
2014-Dec-20 14:33N 38°14' W 010°15'9 9.4
2014-Dec-20 13:33N 38°24' W 010°18'13 9.1
2014-Dec-20 12:09N 38°36' W 010°21'8 9.3
2014-Dec-20 11:20N 38°44' W 010°23'9 9.5
2014-Dec-20 10:24N 38°52' W 010°25'  
2014-Dec-17 02:33N 48°52' W 005°49'215 7.6
2014-Dec-15 22:29N 49°37' W 000°28'9 9.9
2014-Dec-15 21:33N 49°32' W 000°16'1010.1
2014-Dec-15 20:33N 49°28' W 000°02'1010.4
2014-Dec-15 19:33N 49°26' E 000°13'1210.3
2014-Dec-15 18:25N 49°29' E 000°31'2 1.8
2014-Dec-15 17:30N 49°28' E 000°33'0 0.0
2014-Dec-15 13:18N 49°28' E 000°33'0 0.0
2014-Dec-15 12:30N 49°28' E 000°33'0 0.0
2014-Dec-15 11:30N 49°28' E 000°33'0 0.0
2014-Dec-15 10:06N 49°28' E 000°33'0 0.0
2014-Dec-15 08:15N 49°28' E 000°33'0 0.0
2014-Dec-15 07:30N 49°28' E 000°33'0 0.0
2014-Dec-15 06:24N 49°28' E 000°33'0 0.0
2014-Dec-15 04:33N 49°28' E 000°33'0 0.0
2014-Dec-15 03:18N 49°28' E 000°33'0 0.0
2014-Dec-15 02:24N 49°28' E 000°33'0 0.0
2014-Dec-15 01:24N 49°28' E 000°33'0 0.0
2014-Dec-15 00:12N 49°28' E 000°33'0 0.0
2014-Dec-14 21:12N 49°28' E 000°33'0 0.0
2014-Dec-14 19:30N 49°28' E 000°33'0 0.0
2014-Dec-14 18:06N 49°28' E 000°33'0 0.0
2014-Dec-14 16:30N 49°28' E 000°33'2 1.9
2014-Dec-14 15:33N 49°29' E 000°30'9 9.0
2014-Dec-14 14:34N 49°26' E 000°18'9 8.9
2014-Dec-14 13:33N 49°26' E 000°04'8 7.9
2014-Dec-14 12:34N 49°30' W 000°06'4 3.5
2014-Dec-14 11:32N 49°34' W 000°09'0 0.0
2014-Dec-14 10:23N 49°33' W 000°09'0 0.0
2014-Dec-14 09:32N 49°34' W 000°09'0 0.0
2014-Dec-14 08:32N 49°34' W 000°09'0 0.0
2014-Dec-14 07:29N 49°34' W 000°09'0 0.0
2014-Dec-14 06:32N 49°34' W 000°09'0 0.0
2014-Dec-14 05:32N 49°33' W 000°09'0 0.1
2014-Dec-14 04:29N 49°33' W 000°09'0 0.0
2014-Dec-14 03:29N 49°33' W 000°09'0 0.0
2014-Dec-14 02:32N 49°33' W 000°09'0 0.0
2014-Dec-14 01:32N 49°33' W 000°09'0 0.0
2014-Dec-14 00:32N 49°33' W 000°09'0 0.0
2014-Dec-13 23:32N 49°33' W 000°09'0 0.1
2014-Dec-13 22:32N 49°33' W 000°09'0 0.0
2014-Dec-13 21:32N 49°33' W 000°09'0 0.0
2014-Dec-13 20:32N 49°33' W 000°10'0 0.0
2014-Dec-13 19:26N 49°33' W 000°10'2 2.0
2014-Dec-13 18:34N 49°33' W 000°07'9 8.6
2014-Dec-13 17:34N 49°29' E 000°05'2 2.1
2014-Dec-13 16:33N 49°29' E 000°08'0 0.0
2014-Dec-13 15:33N 49°29' E 000°08'0 0.0
2014-Dec-13 14:33N 49°29' E 000°08'0 0.0
2014-Dec-13 13:33N 49°29' E 000°08'0 0.0
2014-Dec-13 12:33N 49°29' E 000°08'0 0.0
2014-Dec-13 11:33N 49°29' E 000°08'0 0.0
2014-Dec-13 10:30N 49°29' E 000°08'0 0.0
2014-Dec-13 09:30N 49°29' E 000°08'0 0.0
2014-Dec-13 08:33N 49°29' E 000°08'0 0.0
2014-Dec-13 07:33N 49°29' E 000°08'0 0.0
2014-Dec-13 06:33N 49°29' E 000°08'0 0.0
2014-Dec-13 05:33N 49°29' E 000°08'0 0.0
2014-Dec-13 04:30N 49°29' E 000°08'0 0.0
2014-Dec-13 03:33N 49°29' E 000°08'0 0.0
2014-Dec-13 02:33N 49°29' E 000°08'0 0.0
2014-Dec-13 01:33N 49°29' E 000°08'0 0.0
2014-Dec-13 00:33N 49°29' E 000°08'0 0.0
2014-Dec-12 23:33N 49°29' E 000°08'0 0.0
2014-Dec-12 22:30N 49°29' E 000°08'0 0.0
2014-Dec-12 21:33N 49°29' E 000°08'0 0.0
2014-Dec-12 20:30N 49°29' E 000°08'0 0.0
2014-Dec-12 19:33N 49°29' E 000°08'0 0.0
2014-Dec-12 18:33N 49°29' E 000°08'0 0.0
2014-Dec-12 17:33N 49°29' E 000°08'0 0.2
2014-Dec-12 16:33N 49°29' E 000°08'2 1.7
2014-Dec-12 15:33N 49°29' E 000°05'3 3.1
2014-Dec-12 14:34N 49°29' E 000°01'8 8.3
2014-Dec-12 13:33N 49°32' W 000°11'6 5.9
2014-Dec-12 12:33N 49°36' W 000°19'3 3.2
2014-Dec-12 11:33N 49°38' W 000°22'2 1.9
2014-Dec-12 10:31N 49°37' W 000°25'1 1.5
2014-Dec-12 09:33N 49°36' W 000°27'8 8.2
2014-Dec-12 08:33N 49°30' W 000°35'1 0.8
2014-Dec-12 07:33N 49°31' W 000°36'3 3.1
2014-Dec-12 06:33N 49°34' W 000°33'3 3.2
2014-Dec-12 05:33N 49°36' W 000°30'2 2.1
2014-Dec-12 04:34N 49°38' W 000°31'2 2.0
2014-Dec-12 03:33N 49°39' W 000°33'4 3.8
2014-Dec-12 02:27N 49°42' W 000°28'1 1.1
2014-Dec-12 01:21N 49°43' W 000°27'2 1.9
2014-Dec-12 00:03N 49°41' W 000°30'1 2.3
2014-Dec-11 23:33N 49°40' W 000°29'2 1.5
2014-Dec-11 22:31N 49°38' W 000°29'3 2.0
2014-Dec-11 21:07N 49°38' W 000°33'3 2.7
2014-Dec-11 20:07N 49°36' W 000°30'2 3.0
2014-Dec-11 19:30N 49°35' W 000°28'3 3.6
2014-Dec-11 18:33N 49°33' W 000°24'0 0.1
2014-Dec-11 17:32N 49°33' W 000°24'4 3.6
2014-Dec-11 16:32N 49°35' W 000°28'2 2.4
2014-Dec-11 15:32N 49°34' W 000°25'5 5.5
2014-Dec-11 14:33N 49°33' W 000°17'2 2.3
2014-Dec-11 13:33N 49°34' W 000°14'3 3.2
2014-Dec-11 12:33N 49°32' W 000°10'2 2.2
2014-Dec-11 11:33N 49°29' W 000°09'4 3.2
2014-Dec-11 10:22N 49°28' W 000°04'1 0.8
2014-Dec-11 09:31N 49°28' W 000°05'0 0.0
2014-Dec-11 08:31N 49°28' W 000°05'0 0.0
2014-Dec-11 07:31N 49°28' W 000°05'0 0.0
2014-Dec-11 06:25N 49°28' W 000°05'0 0.0
2014-Dec-11 05:31N 49°28' W 000°05'0 0.0
2014-Dec-11 04:31N 49°28' W 000°05'0 0.0
2014-Dec-11 03:25N 49°28' W 000°05'  
Track history (hours):
 
Tides and Currents Weather Stations Pressure Air Temp Water Temp Dewpoint Dewpoint Depression Visibility Wind Speed Wind Dir Waves Ship Positions

Umar1

Last reported at 2014-Dec-21 02:33 UTC. Time now 2014-Dec-21 02:37 UTC.
Position N 36°34' W 009°17'.

Length 100 m; draft 6.2 m.

Type: Tanker. MMSI: 248751000.

Date/timePositionNaut miles runAvg speedWind from/ knotsBaromVisibWave heightAir tempDewpointWater temp
2014-Dec-21 02:33N 36°34' W 009°17'9 9.0
2014-Dec-21 01:30N 36°41' W 009°26'8 8.9
2014-Dec-21 00:33N 36°47' W 009°33'9 9.4
2014-Dec-20 23:33N 36°56' W 009°36'8 8.5
2014-Dec-20 22:33N 37°01' W 009°44'10 9.1
2014-Dec-20 21:27N 37°11' W 009°49'9 9.5
2014-Dec-20 20:32N 37°19' W 009°53'10 9.8
2014-Dec-20 19:32N 37°28' W 009°56'1010.1
2014-Dec-20 18:31N 37°38' W 010°00'10 9.9
2014-Dec-20 17:33N 37°47' W 010°04'10 9.6
2014-Dec-20 16:33N 37°56' W 010°08'10 9.6
2014-Dec-20 15:29N 38°06' W 010°12'9 9.5
2014-Dec-20 14:33N 38°14' W 010°15'9 9.4
2014-Dec-20 13:33N 38°24' W 010°18'13 9.1
2014-Dec-20 12:09N 38°36' W 010°21'8 9.3
2014-Dec-20 11:20N 38°44' W 010°23'9 9.5
2014-Dec-20 10:24N 38°52' W 010°25'  
2014-Dec-17 02:33N 48°52' W 005°49'215 7.6
2014-Dec-15 22:29N 49°37' W 000°28'9 9.9
2014-Dec-15 21:33N 49°32' W 000°16'1010.1
2014-Dec-15 20:33N 49°28' W 000°02'1010.4
2014-Dec-15 19:33N 49°26' E 000°13'1210.3
2014-Dec-15 18:25N 49°29' E 000°31'2 1.8
2014-Dec-15 17:30N 49°28' E 000°33'0 0.0
2014-Dec-15 13:18N 49°28' E 000°33'0 0.0
2014-Dec-15 12:30N 49°28' E 000°33'0 0.0
2014-Dec-15 11:30N 49°28' E 000°33'0 0.0
2014-Dec-15 10:06N 49°28' E 000°33'0 0.0
2014-Dec-15 08:15N 49°28' E 000°33'0 0.0
2014-Dec-15 07:30N 49°28' E 000°33'0 0.0
2014-Dec-15 06:24N 49°28' E 000°33'0 0.0
2014-Dec-15 04:33N 49°28' E 000°33'0 0.0
2014-Dec-15 03:18N 49°28' E 000°33'0 0.0
2014-Dec-15 02:24N 49°28' E 000°33'0 0.0
2014-Dec-15 01:24N 49°28' E 000°33'0 0.0
2014-Dec-15 00:12N 49°28' E 000°33'0 0.0
2014-Dec-14 21:12N 49°28' E 000°33'0 0.0
2014-Dec-14 19:30N 49°28' E 000°33'0 0.0
2014-Dec-14 18:06N 49°28' E 000°33'0 0.0
2014-Dec-14 16:30N 49°28' E 000°33'2 1.9
2014-Dec-14 15:33N 49°29' E 000°30'9 9.0
2014-Dec-14 14:34N 49°26' E 000°18'9 8.9
2014-Dec-14 13:33N 49°26' E 000°04'8 7.9
2014-Dec-14 12:34N 49°30' W 000°06'4 3.5
2014-Dec-14 11:32N 49°34' W 000°09'0 0.0
2014-Dec-14 10:23N 49°33' W 000°09'0 0.0
2014-Dec-14 09:32N 49°34' W 000°09'0 0.0
2014-Dec-14 08:32N 49°34' W 000°09'0 0.0
2014-Dec-14 07:29N 49°34' W 000°09'0 0.0
2014-Dec-14 06:32N 49°34' W 000°09'0 0.0
2014-Dec-14 05:32N 49°33' W 000°09'0 0.1
2014-Dec-14 04:29N 49°33' W 000°09'0 0.0
2014-Dec-14 03:29N 49°33' W 000°09'0 0.0
2014-Dec-14 02:32N 49°33' W 000°09'0 0.0
2014-Dec-14 01:32N 49°33' W 000°09'0 0.0
2014-Dec-14 00:32N 49°33' W 000°09'0 0.0
2014-Dec-13 23:32N 49°33' W 000°09'0 0.1
2014-Dec-13 22:32N 49°33' W 000°09'0 0.0
2014-Dec-13 21:32N 49°33' W 000°09'0 0.0
2014-Dec-13 20:32N 49°33' W 000°10'0 0.0
2014-Dec-13 19:26N 49°33' W 000°10'2 2.0
2014-Dec-13 18:34N 49°33' W 000°07'9 8.6
2014-Dec-13 17:34N 49°29' E 000°05'2 2.1
2014-Dec-13 16:33N 49°29' E 000°08'0 0.0
2014-Dec-13 15:33N 49°29' E 000°08'0 0.0
2014-Dec-13 14:33N 49°29' E 000°08'0 0.0
2014-Dec-13 13:33N 49°29' E 000°08'0 0.0
2014-Dec-13 12:33N 49°29' E 000°08'0 0.0
2014-Dec-13 11:33N 49°29' E 000°08'0 0.0
2014-Dec-13 10:30N 49°29' E 000°08'0 0.0
2014-Dec-13 09:30N 49°29' E 000°08'0 0.0
2014-Dec-13 08:33N 49°29' E 000°08'0 0.0
2014-Dec-13 07:33N 49°29' E 000°08'0 0.0
2014-Dec-13 06:33N 49°29' E 000°08'0 0.0
2014-Dec-13 05:33N 49°29' E 000°08'0 0.0
2014-Dec-13 04:30N 49°29' E 000°08'0 0.0
2014-Dec-13 03:33N 49°29' E 000°08'0 0.0
2014-Dec-13 02:33N 49°29' E 000°08'0 0.0
2014-Dec-13 01:33N 49°29' E 000°08'0 0.0
2014-Dec-13 00:33N 49°29' E 000°08'0 0.0
2014-Dec-12 23:33N 49°29' E 000°08'0 0.0
2014-Dec-12 22:30N 49°29' E 000°08'0 0.0
2014-Dec-12 21:33N 49°29' E 000°08'0 0.0
2014-Dec-12 20:30N 49°29' E 000°08'0 0.0
2014-Dec-12 19:33N 49°29' E 000°08'0 0.0
2014-Dec-12 18:33N 49°29' E 000°08'0 0.0
2014-Dec-12 17:33N 49°29' E 000°08'0 0.2
2014-Dec-12 16:33N 49°29' E 000°08'2 1.7
2014-Dec-12 15:33N 49°29' E 000°05'3 3.1
2014-Dec-12 14:34N 49°29' E 000°01'8 8.3
2014-Dec-12 13:33N 49°32' W 000°11'6 5.9
2014-Dec-12 12:33N 49°36' W 000°19'3 3.2
2014-Dec-12 11:33N 49°38' W 000°22'2 1.9
2014-Dec-12 10:31N 49°37' W 000°25'1 1.5
2014-Dec-12 09:33N 49°36' W 000°27'8 8.2
2014-Dec-12 08:33N 49°30' W 000°35'1 0.8
2014-Dec-12 07:33N 49°31' W 000°36'3 3.1
2014-Dec-12 06:33N 49°34' W 000°33'3 3.2
2014-Dec-12 05:33N 49°36' W 000°30'2 2.1
2014-Dec-12 04:34N 49°38' W 000°31'2 2.0
2014-Dec-12 03:33N 49°39' W 000°33'4 3.8
2014-Dec-12 02:27N 49°42' W 000°28'1 1.1
2014-Dec-12 01:21N 49°43' W 000°27'2 1.9
2014-Dec-12 00:03N 49°41' W 000°30'1 2.3
2014-Dec-11 23:33N 49°40' W 000°29'2 1.5
2014-Dec-11 22:31N 49°38' W 000°29'3 2.0
2014-Dec-11 21:07N 49°38' W 000°33'3 2.7
2014-Dec-11 20:07N 49°36' W 000°30'2 3.0
2014-Dec-11 19:30N 49°35' W 000°28'3 3.6
2014-Dec-11 18:33N 49°33' W 000°24'0 0.1
2014-Dec-11 17:32N 49°33' W 000°24'4 3.6
2014-Dec-11 16:32N 49°35' W 000°28'2 2.4
2014-Dec-11 15:32N 49°34' W 000°25'5 5.5
2014-Dec-11 14:33N 49°33' W 000°17'2 2.3
2014-Dec-11 13:33N 49°34' W 000°14'3 3.2
2014-Dec-11 12:33N 49°32' W 000°10'2 2.2
2014-Dec-11 11:33N 49°29' W 000°09'4 3.2
2014-Dec-11 10:22N 49°28' W 000°04'1 0.8
2014-Dec-11 09:31N 49°28' W 000°05'0 0.0
2014-Dec-11 08:31N 49°28' W 000°05'0 0.0
2014-Dec-11 07:31N 49°28' W 000°05'0 0.0
2014-Dec-11 06:25N 49°28' W 000°05'0 0.0
2014-Dec-11 05:31N 49°28' W 000°05'0 0.0
2014-Dec-11 04:31N 49°28' W 000°05'0 0.0
2014-Dec-11 03:25N 49°28' W 000°05'  

Dump ship's entire track history